createdAt,value
2019-01-22T00:02:10.709Z,48.20
2019-01-22T00:04:38.274Z,46.00
2019-01-22T00:07:05.738Z,49.07
2019-01-22T00:09:33.236Z,45.33
2019-01-22T00:12:00.918Z,51.90
2019-01-22T00:14:28.390Z,46.90
2019-01-22T00:16:55.905Z,55.07
2019-01-22T00:19:23.372Z,48.03
2019-01-22T00:21:50.847Z,52.00
2019-01-22T00:24:18.346Z,51.70
2019-01-22T00:26:46.110Z,47.00
2019-01-22T00:29:13.621Z,46.47
2019-01-22T00:31:41.089Z,47.30
2019-01-22T00:34:08.546Z,47.90
2019-01-22T00:36:36.008Z,48.73
2019-01-22T00:39:05.355Z,54.13
2019-01-22T00:41:33.123Z,48.40
2019-01-22T00:44:00.601Z,48.73
2019-01-22T00:46:28.164Z,51.47
2019-01-22T00:48:55.716Z,55.40
2019-01-22T00:51:23.193Z,47.23
2019-01-22T00:53:50.706Z,50.83
2019-01-22T00:56:18.177Z,54.40
2019-01-22T00:58:45.714Z,48.03
2019-01-22T01:01:13.331Z,55.67
2019-01-22T01:03:40.766Z,53.93
2019-01-22T01:06:08.303Z,50.90
2019-01-22T01:08:35.818Z,49.70
2019-01-22T01:11:03.327Z,48.37
2019-01-22T01:13:30.793Z,57.40
2019-01-22T01:15:58.371Z,49.50
2019-01-22T01:18:25.843Z,52.47
2019-01-22T01:20:53.319Z,51.70
2019-01-22T01:23:20.819Z,46.27
2019-01-22T01:25:48.304Z,56.60
2019-01-22T01:28:16.172Z,49.77
2019-01-22T01:30:43.762Z,48.47
2019-01-22T01:33:11.297Z,50.50
2019-01-22T01:35:38.763Z,49.67
2019-01-22T01:38:06.278Z,56.77
2019-01-22T01:40:33.760Z,48.73
2019-01-22T01:43:01.229Z,50.47
2019-01-22T01:45:28.732Z,48.57
2019-01-22T01:47:56.205Z,50.17
2019-01-22T01:50:23.705Z,46.28
2019-01-22T01:52:51.270Z,54.42
2019-01-22T01:55:18.818Z,48.27
2019-01-22T01:57:46.305Z,50.40
2019-01-22T02:00:15.475Z,47.87
2019-01-22T02:02:42.968Z,49.13
2019-01-22T02:05:10.518Z,54.37
2019-01-22T02:07:37.988Z,47.30
2019-01-22T02:10:06.962Z,49.37
2019-01-22T02:12:35.975Z,50.17
2019-01-22T02:15:05.157Z,55.40
2019-01-22T02:17:34.115Z,48.37
2019-01-22T02:20:03.108Z,47.75
2019-01-22T02:22:34.967Z,59.07
2019-01-22T02:25:03.952Z,52.93
2019-01-22T02:27:33.301Z,50.77
2019-01-22T02:30:02.251Z,52.37
2019-01-22T02:32:31.300Z,46.53
2019-01-22T02:35:00.243Z,50.73
2019-01-22T02:37:29.183Z,52.83
2019-01-22T02:39:58.225Z,45.30
2019-01-22T02:42:30.023Z,48.10
2019-01-22T02:45:01.959Z,47.63
2019-01-22T02:47:33.675Z,52.47
2019-01-22T02:50:02.623Z,48.40
2019-01-22T02:52:31.588Z,54.03
2019-01-22T02:55:00.618Z,48.23
2019-01-22T02:57:44.750Z,61.53
2019-01-22T03:00:16.412Z,49.90
2019-01-22T03:02:51.576Z,50.23
2019-01-22T03:05:20.526Z,48.55
2019-01-22T03:07:52.185Z,48.13
2019-01-22T03:10:24.289Z,53.75
2019-01-22T03:12:59.164Z,49.00
2019-01-22T03:15:28.116Z,57.87
2019-01-22T03:17:57.057Z,53.03
2019-01-22T03:20:26.099Z,50.23
2019-01-22T03:22:58.061Z,50.45
2019-01-22T03:25:27.008Z,49.37
2019-01-22T03:27:56.052Z,53.77
2019-01-22T03:30:41.504Z,50.00
2019-01-22T03:33:13.228Z,49.77
2019-01-22T03:35:42.168Z,49.97
2019-01-22T03:38:11.110Z,57.97
2019-01-22T03:40:55.194Z,47.27
2019-01-22T03:43:36.418Z,49.47
2019-01-22T03:46:20.369Z,49.37
2019-01-22T03:48:49.312Z,49.63
2019-01-22T03:51:18.255Z,49.83
2019-01-22T03:54:03.616Z,47.93
2019-01-22T03:56:38.560Z,46.93
2019-01-22T03:59:06.018Z,48.73
2019-01-22T04:01:33.604Z,57.40
2019-01-22T04:04:01.382Z,49.50
2019-01-22T04:06:28.852Z,50.30
2019-01-22T04:08:57.492Z,50.03
2019-01-22T04:11:25.654Z,52.93
2019-01-22T04:13:53.136Z,53.73
2019-01-22T04:16:20.642Z,53.30
2019-01-22T04:18:48.528Z,48.50
2019-01-22T04:21:17.137Z,52.75
2019-01-22T04:23:46.065Z,48.10
2019-01-22T04:26:15.041Z,46.03
2019-01-22T04:28:47.098Z,48.40
2019-01-22T04:31:19.123Z,48.90
2019-01-22T04:34:00.351Z,59.03
2019-01-22T04:36:45.762Z,47.93
2019-01-22T04:39:33.698Z,45.13
2019-01-22T04:42:19.218Z,44.20
2019-01-22T04:44:51.164Z,46.57
2019-01-22T04:47:38.399Z,45.90
2019-01-22T04:50:11.971Z,47.10
2019-01-22T04:52:40.912Z,46.03
2019-01-22T04:55:15.580Z,45.03
2019-01-22T04:57:44.683Z,45.83
2019-01-22T05:00:19.546Z,46.80
2019-01-22T05:02:54.775Z,46.37
2019-01-22T05:05:40.144Z,41.33
2019-01-22T05:08:27.470Z,43.23
2019-01-22T05:11:08.368Z,36.70
2019-01-22T05:13:37.352Z,40.70
2019-01-22T05:16:06.283Z,35.50
2019-01-22T05:18:35.235Z,33.97
2019-01-22T05:21:22.718Z,39.23
2019-01-22T05:23:51.673Z,38.17
2019-01-22T05:26:20.651Z,35.80
2019-01-22T05:28:52.514Z,33.07
2019-01-22T05:31:21.464Z,40.27
2019-01-22T05:33:59.353Z,35.40
2019-01-22T05:36:28.298Z,36.43
2019-01-22T05:39:04.597Z,36.10
2019-01-22T05:41:33.531Z,33.77
2019-01-22T05:44:05.176Z,39.70
2019-01-22T05:46:40.148Z,36.90
2019-01-22T05:49:24.076Z,33.27
2019-01-22T05:51:53.068Z,33.40
2019-01-22T05:54:25.260Z,30.67
2019-01-22T05:56:52.624Z,32.40
2019-01-22T05:59:21.580Z,36.20
2019-01-22T06:01:50.549Z,33.15
2019-01-22T06:04:36.259Z,37.38
2019-01-22T06:07:21.856Z,29.65
2019-01-22T06:10:07.454Z,33.60
2019-01-22T06:12:39.539Z,33.18
2019-01-22T06:15:08.502Z,37.63
2019-01-22T06:17:46.265Z,39.48
2019-01-22T06:20:24.116Z,36.07
2019-01-22T06:23:05.143Z,38.38
2019-01-22T06:25:34.069Z,35.40
2019-01-22T06:28:03.095Z,36.15
2019-01-22T06:30:34.772Z,31.90
2019-01-22T06:33:06.507Z,33.67
2019-01-22T06:35:35.530Z,31.33
2019-01-22T06:38:07.141Z,34.70
2019-01-22T06:40:42.028Z,33.57
2019-01-22T06:43:23.139Z,40.57
2019-01-22T06:45:52.113Z,38.83
2019-01-22T06:48:36.442Z,36.35
2019-01-22T06:51:14.373Z,35.07
2019-01-22T06:53:43.912Z,33.50
2019-01-22T06:56:18.611Z,36.73
2019-01-22T06:58:56.300Z,34.80
2019-01-22T07:01:41.728Z,34.40
2019-01-22T07:04:10.682Z,40.48
2019-01-22T07:06:39.629Z,37.83
2019-01-22T07:09:08.685Z,33.17
2019-01-22T07:11:43.416Z,34.10
2019-01-22T07:14:12.390Z,37.10
2019-01-22T07:16:47.225Z,33.90
2019-01-22T07:19:22.103Z,31.03
2019-01-22T07:22:07.512Z,36.30
2019-01-22T07:24:36.482Z,33.17
2019-01-22T07:27:11.808Z,34.87
2019-01-22T07:29:40.771Z,33.33
2019-01-22T07:32:12.702Z,35.33
2019-01-22T07:34:47.697Z,36.27
2019-01-22T07:37:16.761Z,30.90
2019-01-22T07:39:51.521Z,31.07
2019-01-22T07:42:29.346Z,30.80
2019-01-22T07:45:00.983Z,36.37
2019-01-22T07:47:32.667Z,32.78
2019-01-22T07:50:01.610Z,40.20
2019-01-22T07:52:36.565Z,34.95
2019-01-22T07:55:08.440Z,38.23
2019-01-22T07:57:40.336Z,30.33
2019-01-22T08:00:12.785Z,34.00
2019-01-22T08:02:47.645Z,35.95
2019-01-22T08:05:36.161Z,34.73
2019-01-22T08:08:09.733Z,32.47
2019-01-22T08:10:38.697Z,30.47
2019-01-22T08:13:24.093Z,32.10
2019-01-22T08:15:55.690Z,28.03
2019-01-22T08:18:33.877Z,35.60
2019-01-22T08:21:05.803Z,31.67
2019-01-22T08:23:49.773Z,36.90
2019-01-22T08:26:18.710Z,28.67
2019-01-22T08:29:02.711Z,32.70
2019-01-22T08:31:34.436Z,32.83
2019-01-22T08:34:03.379Z,34.57
2019-01-22T08:36:32.345Z,32.37
2019-01-22T08:39:10.048Z,40.70
2019-01-22T08:41:53.800Z,31.02
2019-01-22T08:44:31.744Z,36.73
2019-01-22T08:47:03.752Z,33.73
2019-01-22T08:49:48.021Z,36.50
2019-01-22T08:52:29.155Z,35.13
2019-01-22T08:55:07.976Z,40.93
2019-01-22T08:57:46.638Z,40.23
2019-01-22T09:00:24.797Z,38.98
2019-01-22T09:02:59.989Z,36.47
2019-01-22T09:05:45.598Z,36.33
2019-01-22T09:08:29.799Z,39.30
2019-01-22T09:11:15.417Z,37.17
2019-01-22T09:13:44.422Z,37.27
2019-01-22T09:16:16.191Z,38.90
2019-01-22T09:18:45.155Z,41.93
2019-01-22T09:21:14.100Z,43.05
2019-01-22T09:23:43.068Z,37.70
2019-01-22T09:26:12.043Z,43.13
2019-01-22T09:28:57.630Z,42.35
2019-01-22T09:31:29.556Z,35.60
2019-01-22T09:34:10.248Z,42.25
2019-01-22T09:36:39.248Z,39.33
2019-01-22T09:39:08.540Z,42.62
2019-01-22T09:41:36.147Z,40.08
2019-01-22T09:44:03.648Z,38.63
2019-01-22T09:46:31.112Z,40.43
2019-01-22T09:48:58.655Z,37.10
2019-01-22T09:51:26.181Z,37.53
2019-01-22T09:53:53.661Z,36.93
2019-01-22T09:56:22.058Z,44.58
2019-01-22T09:58:49.608Z,38.60
2019-01-22T10:01:17.081Z,38.97
2019-01-22T10:03:44.547Z,35.97
2019-01-22T10:06:12.133Z,34.18
2019-01-22T10:08:39.627Z,40.88
2019-01-22T10:11:07.096Z,36.45
2019-01-22T10:13:34.647Z,41.33
2019-01-22T10:16:02.150Z,39.10
2019-01-22T10:18:29.644Z,36.28
2019-01-22T10:20:57.136Z,39.13
2019-01-22T10:23:24.631Z,35.08
2019-01-22T10:25:52.105Z,38.47
2019-01-22T10:28:19.592Z,40.52
2019-01-22T10:30:47.096Z,38.00
2019-01-22T10:33:14.558Z,34.77
2019-01-22T10:35:42.025Z,38.40
2019-01-22T10:38:09.603Z,40.63
2019-01-22T10:40:37.152Z,41.47
2019-01-22T10:43:09.201Z,39.40
2019-01-22T10:45:33.866Z,42.57
2019-01-22T10:48:01.336Z,34.70
2019-01-22T10:50:28.963Z,40.40
2019-01-22T10:52:56.384Z,36.00
2019-01-22T10:55:23.865Z,42.97
2019-01-22T10:57:51.352Z,35.87
2019-01-22T11:00:23.243Z,37.90
2019-01-22T11:02:50.819Z,39.77
2019-01-22T11:05:19.768Z,42.63
2019-01-22T11:07:47.259Z,38.67
2019-01-22T11:10:14.827Z,37.27
2019-01-22T11:12:42.328Z,37.57
2019-01-22T11:15:11.286Z,39.47
2019-01-22T11:17:38.811Z,37.37
2019-01-22T11:20:07.751Z,42.17
2019-01-22T11:22:35.215Z,35.13
2019-01-22T11:25:02.724Z,36.97
2019-01-22T11:27:30.192Z,42.60
2019-01-22T11:29:57.743Z,36.27
2019-01-22T11:32:25.243Z,32.60
2019-01-22T11:34:52.702Z,34.93
2019-01-22T11:37:20.171Z,33.87
2019-01-22T11:39:47.672Z,37.10
2019-01-22T11:42:15.143Z,34.17
2019-01-22T11:44:42.528Z,32.03
2019-01-22T11:47:10.026Z,38.03
2019-01-22T11:49:37.789Z,38.60
2019-01-22T11:52:05.325Z,43.73
2019-01-22T11:54:32.808Z,42.23
2019-01-22T11:57:00.308Z,39.53
2019-01-22T11:59:27.874Z,37.00
2019-01-22T12:01:55.350Z,39.10
2019-01-22T12:04:22.857Z,39.13
2019-01-22T12:06:50.361Z,40.73
2019-01-22T12:09:17.838Z,38.77
2019-01-22T12:11:45.528Z,36.03
2019-01-22T12:14:13.010Z,38.40
2019-01-22T12:16:40.484Z,35.20
2019-01-22T12:19:07.972Z,38.37
2019-01-22T12:21:35.462Z,38.60
2019-01-22T12:24:02.930Z,35.53
2019-01-22T12:26:30.479Z,40.47
2019-01-22T12:28:57.928Z,39.67
2019-01-22T12:31:25.404Z,35.60
2019-01-22T12:33:52.896Z,44.50
2019-01-22T12:36:20.386Z,37.70
2019-01-22T12:38:47.894Z,35.90
2019-01-22T12:41:15.850Z,38.83
2019-01-22T12:43:43.323Z,38.13
2019-01-22T12:46:10.790Z,36.77
2019-01-22T12:48:38.291Z,40.07
2019-01-22T12:51:05.758Z,32.87
2019-01-22T12:53:33.234Z,34.20
2019-01-22T12:56:04.484Z,37.73
2019-01-22T12:58:29.864Z,34.07
2019-01-22T13:00:57.307Z,35.73
2019-01-22T13:03:24.803Z,39.87
2019-01-22T13:05:53.756Z,37.93
2019-01-22T13:08:21.211Z,40.83
2019-01-22T13:10:48.796Z,38.10
2019-01-22T13:13:16.326Z,40.37
2019-01-22T13:15:43.807Z,39.27
2019-01-22T13:18:11.325Z,45.60
2019-01-22T13:20:38.870Z,42.47
2019-01-22T13:23:06.579Z,41.20
2019-01-22T13:25:34.133Z,39.90
2019-01-22T13:28:01.606Z,43.13
2019-01-22T13:30:29.871Z,39.10
2019-01-22T13:32:57.376Z,38.50
2019-01-22T13:35:24.841Z,44.20
2019-01-22T13:37:52.368Z,40.97
2019-01-22T13:40:19.885Z,37.27
2019-01-22T13:42:47.416Z,39.37
2019-01-22T13:45:19.376Z,37.80
2019-01-22T13:47:46.832Z,40.67
2019-01-22T13:50:18.331Z,38.57
2019-01-22T13:52:45.913Z,43.50
2019-01-22T13:55:14.865Z,37.50
2019-01-22T13:57:42.367Z,40.30
2019-01-22T14:00:11.307Z,41.00
2019-01-22T14:02:38.852Z,43.37
2019-01-22T14:05:06.526Z,39.63
2019-01-22T14:07:34.047Z,39.03
2019-01-22T14:10:01.587Z,45.50
2019-01-22T14:12:28.995Z,39.07
2019-01-22T14:14:56.497Z,38.13
2019-01-22T14:17:24.007Z,35.33
2019-01-22T14:19:51.495Z,35.00
2019-01-22T14:22:18.970Z,36.90
2019-01-22T14:24:46.466Z,45.37
2019-01-22T14:27:13.978Z,36.90
2019-01-22T14:29:41.520Z,42.73
2019-01-22T14:32:08.990Z,48.93
2019-01-22T14:34:36.526Z,40.13
2019-01-22T14:37:04.022Z,41.53
2019-01-22T14:39:31.537Z,41.60
2019-01-22T14:41:59.071Z,35.97
2019-01-22T14:44:26.539Z,42.20
2019-01-22T14:46:54.044Z,43.73
2019-01-22T14:49:21.590Z,45.60
2019-01-22T14:51:49.131Z,45.80
2019-01-22T14:54:16.623Z,42.83
2019-01-22T14:56:44.099Z,42.20
2019-01-22T14:59:11.560Z,40.53
2019-01-22T15:01:39.140Z,41.80
2019-01-22T15:04:06.678Z,41.77
2019-01-22T15:06:34.171Z,43.47
2019-01-22T15:09:01.748Z,40.67
2019-01-22T15:11:29.234Z,47.85
2019-01-22T15:13:56.703Z,45.67
2019-01-22T15:16:24.209Z,45.90
2019-01-22T15:18:51.799Z,50.30
2019-01-22T15:21:19.272Z,43.70
2019-01-22T15:23:46.782Z,44.57
2019-01-22T15:26:14.243Z,45.63
2019-01-22T15:28:41.742Z,42.87
2019-01-22T15:31:09.264Z,39.43
2019-01-22T15:33:36.750Z,45.07
2019-01-22T15:36:04.405Z,46.73
2019-01-22T15:38:31.891Z,40.23
2019-01-22T15:40:59.348Z,38.27
2019-01-22T15:43:26.835Z,43.67
2019-01-22T15:45:54.353Z,42.73
2019-01-22T15:48:21.813Z,40.80
2019-01-22T15:50:50.059Z,38.73
2019-01-22T15:53:17.561Z,47.30
2019-01-22T15:55:48.166Z,40.08
2019-01-22T15:58:14.189Z,46.63
2019-01-22T16:00:41.815Z,39.80
2019-01-22T16:03:09.375Z,43.15
2019-01-22T16:05:36.860Z,41.28
2019-01-22T16:08:04.560Z,42.13
2019-01-22T16:10:32.059Z,42.05
2019-01-22T16:12:59.576Z,38.83
2019-01-22T16:15:27.118Z,44.65
2019-01-22T16:17:54.674Z,45.10
2019-01-22T16:20:23.200Z,41.67
2019-01-22T16:22:50.692Z,42.90
2019-01-22T16:25:18.625Z,39.38
2019-01-22T16:27:46.216Z,37.20
2019-01-22T16:30:17.413Z,46.53
2019-01-22T16:32:44.892Z,40.52
2019-01-22T16:35:13.565Z,45.92
2019-01-22T16:37:41.197Z,38.93
2019-01-22T16:40:09.977Z,41.08
2019-01-22T16:42:37.454Z,39.10
2019-01-22T16:45:06.444Z,40.28
2019-01-22T16:47:33.956Z,40.63
2019-01-22T16:50:01.535Z,41.33
2019-01-22T16:52:29.092Z,46.60
2019-01-22T16:54:56.947Z,39.30
2019-01-22T16:57:24.459Z,44.38
2019-01-22T16:59:52.028Z,45.17
2019-01-22T17:02:19.587Z,39.98
2019-01-22T17:04:47.263Z,44.40
2019-01-22T17:07:14.742Z,42.05
2019-01-22T17:09:42.288Z,48.43
2019-01-22T17:12:09.812Z,42.23
2019-01-22T17:14:37.396Z,41.40
2019-01-22T17:17:04.961Z,49.13
2019-01-22T17:19:32.435Z,42.70
2019-01-22T17:21:59.951Z,40.27
2019-01-22T17:24:27.445Z,43.58
2019-01-22T17:26:55.032Z,50.17
2019-01-22T17:29:22.529Z,43.70
2019-01-22T17:31:57.165Z,44.17
2019-01-22T17:34:25.654Z,44.42
2019-01-22T17:36:53.147Z,42.73
2019-01-22T17:39:20.814Z,41.23
2019-01-22T17:41:48.295Z,43.20
2019-01-22T17:44:15.881Z,46.03
2019-01-22T17:46:43.390Z,43.33
2019-01-22T17:49:10.907Z,41.17
2019-01-22T17:51:38.372Z,44.60
2019-01-22T17:54:05.861Z,39.70
2019-01-22T17:56:33.373Z,46.23
2019-01-22T17:59:00.920Z,46.43
2019-01-22T18:01:28.391Z,46.90
2019-01-22T18:03:56.499Z,46.77
2019-01-22T18:06:23.985Z,41.48
2019-01-22T18:08:51.465Z,41.83
2019-01-22T18:11:18.989Z,45.93
2019-01-22T18:13:46.532Z,40.83
2019-01-22T18:16:14.129Z,47.70
2019-01-22T18:18:46.061Z,44.87
2019-01-22T18:21:10.915Z,40.17
2019-01-22T18:23:38.661Z,51.83
2019-01-22T18:26:06.170Z,43.23
2019-01-22T18:28:33.654Z,48.43
2019-01-22T18:31:01.146Z,46.40
2019-01-22T18:33:28.635Z,46.03
2019-01-22T18:35:56.188Z,56.77
2019-01-22T18:38:23.761Z,49.60
2019-01-22T18:40:51.245Z,46.70
2019-01-22T18:43:18.907Z,45.37
2019-01-22T18:45:46.396Z,49.00
2019-01-22T18:48:13.876Z,46.37
2019-01-22T18:50:41.359Z,54.17
2019-01-22T18:53:08.906Z,53.73
2019-01-22T18:55:36.469Z,55.37
2019-01-22T18:58:04.062Z,52.20
2019-01-22T19:00:31.663Z,52.77
2019-01-22T19:02:59.161Z,61.10
2019-01-22T19:05:26.635Z,51.20
2019-01-22T19:07:54.151Z,54.20
2019-01-22T19:10:22.999Z,52.37
2019-01-22T19:12:50.549Z,59.43
2019-01-22T19:15:18.536Z,54.83
2019-01-22T19:17:46.083Z,55.20
2019-01-22T19:20:13.865Z,57.60
2019-01-22T19:22:41.345Z,51.50
2019-01-22T19:25:10.551Z,46.27
2019-01-22T19:27:42.687Z,50.43
2019-01-22T19:30:12.037Z,44.00
2019-01-22T19:32:39.503Z,50.10
2019-01-22T19:35:07.751Z,51.07
2019-01-22T19:37:35.279Z,55.93
2019-01-22T19:40:02.821Z,46.77
2019-01-22T19:42:30.793Z,50.23
2019-01-22T19:44:58.373Z,52.53
2019-01-22T19:47:25.863Z,45.50
2019-01-22T19:49:53.458Z,48.10
2019-01-22T19:52:21.330Z,54.93
2019-01-22T19:54:48.899Z,55.30
2019-01-22T19:57:16.717Z,56.50
2019-01-22T19:59:44.251Z,52.33
2019-01-22T20:02:11.857Z,45.63
2019-01-22T20:04:39.352Z,49.70
2019-01-22T20:07:07.008Z,52.30
2019-01-22T20:09:34.613Z,49.50
2019-01-22T20:12:02.153Z,49.80
2019-01-22T20:14:29.844Z,57.57
2019-01-22T20:16:57.428Z,61.43
2019-01-22T20:19:24.925Z,57.90
2019-01-22T20:21:52.476Z,49.07
2019-01-22T20:24:20.060Z,55.77
2019-01-22T20:26:47.678Z,58.77
2019-01-22T20:29:15.242Z,56.00
2019-01-22T20:31:42.771Z,53.63
2019-01-22T20:34:10.325Z,59.17
2019-01-22T20:36:37.883Z,53.33
2019-01-22T20:39:06.385Z,60.40
2019-01-22T20:41:34.156Z,53.13
2019-01-22T20:44:01.655Z,53.90
2019-01-22T20:46:29.224Z,54.50
2019-01-22T20:48:56.882Z,55.70
2019-01-22T20:51:24.507Z,57.57
2019-01-22T20:53:52.086Z,56.40
2019-01-22T20:56:19.601Z,64.53
2019-01-22T20:58:47.144Z,61.60
2019-01-22T21:01:14.638Z,61.67
2019-01-22T21:03:42.218Z,65.40
2019-01-22T21:06:09.821Z,62.55
2019-01-22T21:08:37.310Z,79.80
2019-01-22T21:11:04.924Z,67.42
2019-01-22T21:13:32.423Z,65.47
2019-01-22T21:15:59.914Z,65.00
2019-01-22T21:18:27.488Z,66.42
2019-01-22T21:20:54.990Z,68.05
2019-01-22T21:23:22.585Z,66.30
2019-01-22T21:25:50.185Z,70.72
2019-01-22T21:28:17.716Z,72.45
2019-01-22T21:30:45.207Z,75.87
2019-01-22T21:33:12.802Z,69.50
2019-01-22T21:35:40.301Z,67.55
2019-01-22T21:38:08.186Z,69.10
2019-01-22T21:40:35.798Z,62.53
2019-01-22T21:43:03.373Z,69.47
2019-01-22T21:45:30.926Z,70.92
2019-01-22T21:47:58.595Z,63.48
2019-01-22T21:50:26.439Z,64.03
2019-01-22T21:52:53.952Z,74.82
2019-01-22T21:55:24.652Z,68.47
2019-01-22T21:57:52.478Z,62.90
2019-01-22T22:00:21.475Z,68.17
2019-01-22T22:02:48.966Z,71.22
2019-01-22T22:05:17.425Z,67.70
2019-01-22T22:07:45.009Z,76.82
2019-01-22T22:10:14.041Z,70.57
2019-01-22T22:12:41.627Z,61.02
2019-01-22T22:15:10.651Z,77.47
2019-01-22T22:17:38.248Z,67.03
2019-01-22T22:20:07.265Z,80.28
2019-01-22T22:22:34.842Z,66.53
2019-01-22T22:25:02.421Z,78.97
2019-01-22T22:27:29.978Z,74.45
2019-01-22T22:29:57.482Z,67.00
2019-01-22T22:32:24.962Z,74.77
2019-01-22T22:34:52.493Z,72.27
2019-01-22T22:37:19.969Z,76.25
2019-01-22T22:39:47.537Z,77.17
2019-01-22T22:42:15.071Z,75.22
2019-01-22T22:44:42.538Z,81.32
2019-01-22T22:47:10.019Z,70.12
2019-01-22T22:49:37.904Z,74.32
2019-01-22T22:52:05.420Z,74.12
2019-01-22T22:54:32.954Z,81.02
2019-01-22T22:57:00.537Z,78.10
2019-01-22T22:59:28.038Z,76.77
2019-01-22T23:01:55.581Z,75.15
2019-01-22T23:04:23.100Z,71.72
2019-01-22T23:06:50.580Z,77.45
2019-01-22T23:09:18.150Z,76.10
2019-01-22T23:11:45.737Z,73.35
2019-01-22T23:14:13.220Z,72.20
2019-01-22T23:16:40.703Z,80.67
2019-01-22T23:19:08.321Z,75.50
2019-01-22T23:21:35.941Z,79.15
2019-01-22T23:24:03.574Z,68.87
2019-01-22T23:26:31.082Z,64.82
2019-01-22T23:28:58.572Z,74.55
2019-01-22T23:31:26.143Z,72.10
2019-01-22T23:33:53.643Z,70.32
2019-01-22T23:36:21.130Z,70.95
2019-01-22T23:38:48.656Z,78.23
2019-01-22T23:41:16.177Z,71.67
2019-01-22T23:43:43.725Z,74.67
2019-01-22T23:46:11.201Z,74.82
2019-01-22T23:48:38.794Z,73.50
2019-01-22T23:51:06.382Z,72.75
2019-01-22T23:53:34.048Z,68.20
2019-01-22T23:56:01.583Z,76.40
2019-01-22T23:58:29.095Z,73.67
